San Francisco, CA

8:05 PM PDT on September 02, 2015 (GMT -0700)
Golden Gate Heights | | Change Station
CLOSE
Current Station
Personal Weather Station
Location: San Francisco, CA
Elevation: 574 ft
Nearby Weather Stations

Elev 574 ft 37.75 °N, 122.47 °W | Updated 61 days ago

Partly Cloudy
Partly Cloudy
62 °F
Feels Like 62 °F
N
11
Wind Variable Wind from West
Gusts 16 mph

Today
High -- | Low -- °F
--% Chance of Precip.
Yesterday
High -- | Low -- °F
Precip. -- in
6:40 AM 7:37 PM
Waning Gibbous, 75% visible
Pressure 29.92 in
Visibility 10.0 miles
Clouds Few 1000 ft
Scattered Clouds 1500 ft
Dew Point 57 °F
Humidity 85%
Rainfall in
Snow Depth Not available.
UV 0 out of 12
Pollen 7.10 out of 12
Air Quality Not available.
Flu Activity Not available.
METAR KSFO 030256Z 25011KT 10SM FEW010 SCT015 18/13 A2991 RMK AO2 SLP130 T01780133 56005
Pressure 29.92 in
Visibility 10.0 miles
Clouds Few 1000 ft
Scattered Clouds 1500 ft
Dew Point 57 °F
Humidity 85%
Rainfall in
Snow Depth Not available.
UV 0 out of 12
Pollen 7.10 out of 12
Air Quality Not available.
Flu Activity Not available.
METAR KSFO 030256Z 25011KT 10SM FEW010 SCT015 18/13 A2991 RMK AO2 SLP130 T01780133 56005

10-Day Weather Forecast

×

Almanac

Astronomy

Sep. 02, 2015 Rise Set
Actual Time
Civil Twilight
Nautical Twilight
Astronomical Twilight
Moon
Length of Visible Light
Length of Day
Tomorrow will be .
, % of the Moon is Illuminated

Today's Extremes

State Highs State Lows

Community

WunderPhotos

Upload Photos

1,851,892 photos uploaded!

WunderBlogs® & News

Nearby

Air Quality

  Air Quality AQ Index Pollutant
Not available.

Snow Depth

Station Depth Elevation

Earthquake Activity

City Distance Mag. Time & Date
Minimum magnitude displayed is 2.5.

Coastal Water Temperatures

Place Temperature

Stations

Nearby Weather Stations

Station Location Temp. Windchill Dew Point Humidity Wind Precip. Elev Updated Type